createdAt,value
2023-03-22T00:00:37.304Z,12.43
2023-03-22T00:01:42.174Z,12.40
2023-03-22T00:02:46.000Z,12.40
2023-03-22T00:03:50.612Z,12.39
2023-03-22T00:04:54.554Z,12.39
2023-03-22T00:05:59.311Z,12.43
2023-03-22T00:07:03.204Z,12.45
2023-03-22T00:08:08.203Z,12.43
2023-03-22T00:09:11.875Z,12.46
2023-03-22T00:10:15.731Z,12.45
2023-03-22T00:11:20.040Z,12.44
2023-03-22T00:12:23.596Z,12.42
2023-03-22T00:13:27.498Z,12.39
2023-03-22T00:14:31.076Z,12.44
2023-03-22T00:15:35.252Z,12.48
2023-03-22T00:16:38.793Z,12.50
2023-03-22T00:17:42.623Z,12.54
2023-03-22T00:18:46.882Z,12.58
2023-03-22T00:19:50.847Z,12.58
2023-03-22T00:20:55.818Z,12.59
2023-03-22T00:22:01.607Z,12.62
2023-03-22T00:23:05.548Z,12.59
2023-03-22T00:24:09.672Z,12.56
2023-03-22T00:25:13.360Z,12.54
2023-03-22T00:26:16.819Z,12.55
2023-03-22T00:27:20.231Z,12.55
2023-03-22T00:28:24.303Z,12.56
2023-03-22T00:29:28.118Z,12.54
2023-03-22T00:30:31.856Z,12.55
2023-03-22T00:31:35.855Z,12.54
2023-03-22T00:32:39.750Z,12.53
2023-03-22T00:33:43.610Z,12.51
2023-03-22T00:34:47.482Z,12.49
2023-03-22T00:35:55.527Z,12.51
2023-03-22T00:36:59.558Z,12.49
2023-03-22T00:38:15.348Z,12.51
2023-03-22T00:39:19.196Z,12.46
2023-03-22T00:40:23.065Z,12.45
2023-03-22T00:41:26.934Z,12.45
2023-03-22T00:42:30.761Z,12.47
2023-03-22T00:43:34.695Z,12.49
2023-03-22T00:44:39.568Z,12.50
2023-03-22T00:45:43.801Z,12.53
2023-03-22T00:46:48.104Z,12.54
2023-03-22T00:47:51.946Z,12.54
2023-03-22T00:48:56.133Z,12.52
2023-03-22T00:49:59.754Z,12.50
2023-03-22T00:51:03.375Z,12.51
2023-03-22T00:52:09.411Z,12.51
2023-03-22T00:53:13.351Z,12.54
2023-03-22T00:54:18.313Z,12.53
2023-03-22T00:55:22.019Z,12.54
2023-03-22T00:56:26.120Z,12.55
2023-03-22T00:57:47.226Z,12.58
2023-03-22T00:58:50.859Z,12.57
2023-03-22T00:59:54.492Z,12.55
2023-03-22T01:00:58.088Z,12.56
2023-03-22T01:02:01.721Z,12.62
2023-03-22T01:03:06.073Z,12.63
2023-03-22T01:04:10.330Z,12.65
2023-03-22T01:05:18.350Z,12.67
2023-03-22T01:06:21.757Z,12.67
2023-03-22T01:07:25.387Z,12.67
2023-03-22T01:08:34.003Z,12.65
2023-03-22T01:09:37.537Z,12.61
2023-03-22T01:10:42.065Z,12.66
2023-03-22T01:11:45.758Z,12.67
2023-03-22T01:12:49.681Z,12.70
2023-03-22T01:13:53.773Z,12.72
2023-03-22T01:14:57.726Z,12.73
2023-03-22T01:16:01.509Z,12.76
2023-03-22T01:17:05.325Z,12.75
2023-03-22T01:18:09.420Z,12.77
2023-03-22T01:19:13.034Z,12.79
2023-03-22T01:20:17.074Z,12.81
2023-03-22T01:21:21.050Z,12.84
2023-03-22T01:22:27.013Z,12.84
2023-03-22T01:23:31.453Z,12.76
2023-03-22T01:24:35.660Z,12.77
2023-03-22T01:25:39.600Z,12.79
2023-03-22T01:26:44.548Z,12.81
2023-03-22T01:27:48.278Z,12.85
2023-03-22T01:28:51.817Z,12.84
2023-03-22T01:29:55.828Z,12.82
2023-03-22T01:31:02.575Z,12.84
2023-03-22T01:32:07.265Z,12.84
2023-03-22T01:33:11.165Z,12.87
2023-03-22T01:34:14.708Z,12.89
2023-03-22T01:35:18.529Z,12.93
2023-03-22T01:36:22.979Z,12.96
2023-03-22T01:37:28.616Z,12.97
2023-03-22T01:38:32.942Z,12.97
2023-03-22T01:39:37.855Z,12.97
2023-03-22T01:40:44.009Z,12.98
2023-03-22T01:41:47.567Z,12.99
2023-03-22T01:42:54.904Z,13.03
2023-03-22T01:44:17.874Z,13.05
2023-03-22T01:45:39.438Z,13.11
2023-03-22T01:46:43.816Z,13.12
2023-03-22T01:47:53.058Z,13.13
2023-03-22T01:48:56.959Z,13.09
2023-03-22T01:50:01.415Z,13.08
2023-03-22T01:51:34.358Z,13.06
2023-03-22T01:52:58.141Z,13.03
2023-03-22T01:54:10.770Z,13.03
2023-03-22T01:55:14.360Z,13.03
2023-03-22T01:56:24.856Z,13.06
2023-03-22T01:57:29.027Z,13.09
2023-03-22T01:58:35.833Z,13.12
2023-03-22T01:59:45.865Z,13.14
2023-03-22T02:01:00.506Z,13.16
2023-03-22T02:02:25.641Z,13.20
2023-03-22T02:03:58.691Z,13.20
2023-03-22T02:05:05.038Z,13.22
2023-03-22T02:06:09.445Z,13.25
2023-03-22T02:07:16.093Z,13.26
2023-03-22T02:08:23.482Z,13.26
2023-03-22T02:09:43.496Z,13.28
2023-03-22T02:10:48.502Z,13.28
2023-03-22T02:12:01.403Z,13.26
2023-03-22T02:13:12.466Z,13.25
2023-03-22T02:15:04.186Z,13.24
2023-03-22T02:16:45.187Z,13.26
2023-03-22T02:18:17.467Z,13.27
2023-03-22T02:19:43.993Z,13.29
2023-03-22T02:20:55.696Z,13.31
2023-03-22T02:21:59.163Z,13.34
2023-03-22T02:23:12.401Z,13.39
2023-03-22T02:25:06.899Z,13.40
2023-03-22T02:26:31.476Z,13.39
2023-03-22T02:27:45.572Z,13.42
2023-03-22T02:28:58.168Z,13.45
2023-03-22T02:30:38.276Z,13.47
2023-03-22T02:32:09.180Z,13.48
2023-03-22T02:33:30.639Z,13.48
2023-03-22T02:34:55.949Z,13.47
2023-03-22T02:36:22.712Z,13.47
2023-03-22T02:37:48.251Z,13.46
2023-03-22T02:39:11.365Z,13.46
2023-03-22T02:40:34.626Z,13.44
2023-03-22T02:42:15.042Z,13.43
2023-03-22T02:43:27.939Z,13.44
2023-03-22T02:45:11.940Z,13.45
2023-03-22T02:46:31.270Z,13.47
2023-03-22T02:48:03.810Z,13.48
2023-03-22T02:49:15.461Z,13.49
2023-03-22T02:50:43.962Z,13.50
2023-03-22T02:51:59.811Z,13.51
2023-03-22T02:53:17.488Z,13.49
2023-03-22T02:54:29.652Z,13.38
2023-03-22T02:55:37.504Z,13.36
2023-03-22T02:56:44.581Z,13.36
2023-03-22T02:58:09.814Z,13.35
2023-03-22T02:59:14.980Z,13.36
2023-03-22T03:00:19.516Z,13.34
2023-03-22T03:01:30.190Z,13.35
2023-03-22T03:02:33.615Z,13.33
2023-03-22T03:03:41.116Z,13.33
2023-03-22T03:04:47.536Z,13.33
2023-03-22T03:05:57.184Z,13.34
2023-03-22T03:07:05.449Z,13.37
2023-03-22T03:08:09.024Z,13.37
2023-03-22T03:09:18.522Z,13.38
2023-03-22T03:10:22.210Z,13.35
2023-03-22T03:11:25.845Z,13.34
2023-03-22T03:12:31.151Z,13.33
2023-03-22T03:13:34.717Z,13.31
2023-03-22T03:14:38.320Z,13.32
2023-03-22T03:15:44.735Z,13.30
2023-03-22T03:16:49.109Z,13.29
2023-03-22T03:18:21.599Z,13.29
2023-03-22T03:19:29.473Z,13.28
2023-03-22T03:20:44.156Z,13.27
2023-03-22T03:22:09.493Z,13.27
2023-03-22T03:23:29.248Z,13.34
2023-03-22T03:24:48.406Z,13.34
2023-03-22T03:26:04.125Z,13.50
2023-03-22T03:27:21.618Z,13.49
2023-03-22T03:28:45.446Z,13.47
2023-03-22T03:30:14.618Z,13.50
2023-03-22T03:31:26.456Z,13.52
2023-03-22T03:32:35.925Z,13.53
2023-03-22T03:34:01.216Z,13.55
2023-03-22T03:35:11.142Z,13.53
2023-03-22T03:36:16.226Z,13.51
2023-03-22T03:37:43.594Z,13.51
2023-03-22T03:38:48.977Z,13.50
2023-03-22T03:40:14.721Z,13.47
2023-03-22T03:41:19.839Z,13.46
2023-03-22T03:42:27.315Z,13.43
2023-03-22T03:43:30.949Z,13.42
2023-03-22T03:44:34.466Z,13.39
2023-03-22T03:45:38.458Z,13.40
2023-03-22T03:46:42.699Z,13.40
2023-03-22T03:47:47.735Z,13.40
2023-03-22T03:48:51.631Z,13.40
2023-03-22T03:49:55.508Z,13.39
2023-03-22T03:50:59.352Z,13.38
2023-03-22T03:52:03.893Z,13.39
2023-03-22T03:53:07.427Z,13.38
2023-03-22T03:54:11.098Z,13.38
2023-03-22T03:55:14.550Z,13.37
2023-03-22T03:56:18.529Z,13.35
2023-03-22T03:57:24.396Z,13.34
2023-03-22T03:58:31.325Z,13.33
2023-03-22T03:59:34.909Z,13.29
2023-03-22T04:00:46.887Z,13.25
2023-03-22T04:01:53.214Z,13.23
2023-03-22T04:03:01.518Z,13.21
2023-03-22T04:04:28.472Z,13.23
2023-03-22T04:05:37.174Z,13.24
2023-03-22T04:06:40.872Z,13.23
2023-03-22T04:07:52.869Z,13.24
2023-03-22T04:08:57.079Z,13.26
2023-03-22T04:10:07.268Z,13.28
2023-03-22T04:11:11.150Z,13.26
2023-03-22T04:12:16.178Z,13.25
2023-03-22T04:13:30.396Z,13.25
2023-03-22T04:14:37.334Z,13.24
2023-03-22T04:15:54.266Z,13.23
2023-03-22T04:16:57.946Z,13.22
2023-03-22T04:18:02.173Z,13.20
2023-03-22T04:19:07.781Z,13.23
2023-03-22T04:20:12.938Z,13.25
2023-03-22T04:21:17.510Z,13.26
2023-03-22T04:22:28.346Z,13.26
2023-03-22T04:23:33.741Z,13.27
2023-03-22T04:24:38.495Z,13.28
2023-03-22T04:25:42.391Z,13.32
2023-03-22T04:26:49.011Z,13.34
2023-03-22T04:28:01.034Z,13.35
2023-03-22T04:29:07.205Z,13.37
2023-03-22T04:30:19.740Z,13.39
2023-03-22T04:31:41.578Z,13.40
2023-03-22T04:32:55.747Z,13.42
2023-03-22T04:34:08.392Z,13.42
2023-03-22T04:35:25.740Z,13.37
2023-03-22T04:36:31.732Z,13.34
2023-03-22T04:38:01.815Z,13.31
2023-03-22T04:39:10.998Z,13.29
2023-03-22T04:40:18.371Z,13.26
2023-03-22T04:41:42.101Z,13.23
2023-03-22T04:42:46.417Z,13.23
2023-03-22T04:44:04.595Z,13.23
2023-03-22T04:45:12.649Z,13.22
2023-03-22T04:46:18.309Z,13.18
2023-03-22T04:47:27.754Z,13.15
2023-03-22T04:48:31.669Z,13.13
2023-03-22T04:49:37.518Z,13.08
2023-03-22T04:50:41.772Z,13.05
2023-03-22T04:51:45.945Z,13.01
2023-03-22T04:53:05.796Z,13.03
2023-03-22T04:54:09.348Z,13.03
2023-03-22T04:55:16.626Z,13.04
2023-03-22T04:56:21.990Z,13.04
2023-03-22T04:57:28.030Z,13.02
2023-03-22T04:58:34.673Z,13.04
2023-03-22T04:59:38.234Z,13.03
2023-03-22T05:00:42.708Z,13.05
2023-03-22T05:01:52.366Z,13.08
2023-03-22T05:03:02.796Z,13.06
2023-03-22T05:04:15.506Z,13.07
2023-03-22T05:05:19.947Z,13.07
2023-03-22T05:06:25.313Z,13.08
2023-03-22T05:07:37.183Z,13.08
2023-03-22T05:08:41.943Z,13.10
2023-03-22T05:09:46.596Z,13.10
2023-03-22T05:10:53.168Z,13.09
2023-03-22T05:11:56.992Z,13.09
2023-03-22T05:13:19.304Z,13.09
2023-03-22T05:14:23.357Z,13.10
2023-03-22T05:15:26.898Z,13.10
2023-03-22T05:16:31.124Z,13.12
2023-03-22T05:17:34.880Z,13.11
2023-03-22T05:18:42.886Z,13.11
2023-03-22T05:19:46.490Z,13.11
2023-03-22T05:20:50.327Z,13.12
2023-03-22T05:21:59.200Z,13.13
2023-03-22T05:23:19.696Z,13.14
2023-03-22T05:24:26.516Z,13.12
2023-03-22T05:25:30.649Z,13.10
2023-03-22T05:26:38.604Z,13.10
2023-03-22T05:27:42.642Z,13.10
2023-03-22T05:29:17.089Z,13.09
2023-03-22T05:30:38.673Z,13.09
2023-03-22T05:31:53.377Z,13.09
2023-03-22T05:33:04.819Z,13.08
2023-03-22T05:34:14.534Z,13.06
2023-03-22T05:35:19.632Z,13.05
2023-03-22T05:36:30.260Z,13.05
2023-03-22T05:38:02.111Z,13.04
2023-03-22T05:39:09.021Z,13.01
2023-03-22T05:40:13.470Z,13.00
2023-03-22T05:41:20.989Z,12.98
2023-03-22T05:42:24.704Z,12.95
2023-03-22T05:43:28.364Z,12.92
2023-03-22T05:44:32.261Z,12.92
2023-03-22T05:45:49.620Z,12.90
2023-03-22T05:47:19.354Z,12.91
2023-03-22T05:48:46.264Z,12.90
2023-03-22T05:49:53.705Z,12.90
2023-03-22T05:50:59.592Z,12.91
2023-03-22T05:52:06.558Z,12.92
2023-03-22T05:53:34.596Z,12.92
2023-03-22T05:54:46.532Z,12.92
2023-03-22T05:55:50.788Z,12.93
2023-03-22T05:56:55.813Z,12.94
2023-03-22T05:58:02.066Z,12.97
2023-03-22T05:59:08.173Z,12.98
2023-03-22T06:00:15.620Z,13.00
2023-03-22T06:01:39.969Z,13.02
2023-03-22T06:02:57.272Z,13.02
2023-03-22T06:04:01.750Z,12.99
2023-03-22T06:05:12.641Z,13.00
2023-03-22T06:06:16.350Z,13.01
2023-03-22T06:07:29.444Z,13.00
2023-03-22T06:08:38.536Z,12.99
2023-03-22T06:09:43.027Z,12.97
2023-03-22T06:10:54.263Z,12.97
2023-03-22T06:11:58.769Z,12.93
2023-03-22T06:13:02.333Z,12.95
2023-03-22T06:14:08.940Z,12.95
2023-03-22T06:15:32.680Z,12.96
2023-03-22T06:16:40.747Z,12.96
2023-03-22T06:17:44.371Z,12.98
2023-03-22T06:18:51.026Z,12.98
2023-03-22T06:19:55.811Z,12.98
2023-03-22T06:21:01.420Z,12.96
2023-03-22T06:22:04.953Z,12.98
2023-03-22T06:23:11.067Z,12.98
2023-03-22T06:24:17.396Z,12.99
2023-03-22T06:25:22.443Z,13.01
2023-03-22T06:26:26.854Z,13.01
2023-03-22T06:27:30.876Z,13.02
2023-03-22T06:28:34.878Z,13.02
2023-03-22T06:29:40.211Z,13.01
2023-03-22T06:30:44.443Z,13.00
2023-03-22T06:32:07.532Z,12.98
2023-03-22T06:33:11.972Z,12.96
2023-03-22T06:34:18.990Z,12.95
2023-03-22T06:35:23.939Z,12.93
2023-03-22T06:36:27.557Z,12.91
2023-03-22T06:37:43.662Z,12.92
2023-03-22T06:38:48.209Z,12.91
2023-03-22T06:39:52.750Z,12.90
2023-03-22T06:40:58.972Z,12.88
2023-03-22T06:42:03.039Z,12.88
2023-03-22T06:43:07.437Z,12.88
2023-03-22T06:44:15.160Z,12.88
2023-03-22T06:45:51.644Z,12.91
2023-03-22T06:47:01.515Z,12.92
2023-03-22T06:48:27.886Z,12.96
2023-03-22T06:49:39.440Z,12.98
2023-03-22T06:50:44.367Z,13.01
2023-03-22T06:51:51.294Z,13.02
2023-03-22T06:52:56.402Z,13.01
2023-03-22T06:53:59.937Z,13.04
2023-03-22T06:55:03.496Z,13.05
2023-03-22T06:56:07.597Z,13.08
2023-03-22T06:57:23.372Z,13.11
2023-03-22T06:58:27.521Z,13.12
2023-03-22T06:59:31.119Z,13.15
2023-03-22T07:00:35.254Z,13.18
2023-03-22T07:01:39.358Z,13.20
2023-03-22T07:02:43.491Z,13.23
2023-03-22T07:04:09.777Z,13.25
2023-03-22T07:05:14.196Z,13.28
2023-03-22T07:06:17.761Z,13.31
2023-03-22T07:07:25.362Z,13.34
2023-03-22T07:08:29.410Z,13.38
2023-03-22T07:09:33.272Z,13.42
2023-03-22T07:10:36.980Z,13.43
2023-03-22T07:11:41.106Z,13.48
2023-03-22T07:12:45.549Z,13.51
2023-03-22T07:13:52.446Z,13.57
2023-03-22T07:14:57.575Z,13.62
2023-03-22T07:16:27.344Z,13.75
2023-03-22T07:17:36.524Z,13.83
2023-03-22T07:18:40.766Z,13.90
2023-03-22T07:19:45.553Z,13.96
2023-03-22T07:20:50.294Z,14.01
2023-03-22T07:21:54.204Z,14.04
2023-03-22T07:22:58.461Z,14.09
2023-03-22T07:24:05.373Z,14.14
2023-03-22T07:25:09.702Z,14.17
2023-03-22T07:26:14.384Z,14.21
2023-03-22T07:27:22.018Z,14.25
2023-03-22T07:28:26.499Z,14.30
2023-03-22T07:29:31.912Z,14.35
2023-03-22T07:30:39.215Z,14.39
2023-03-22T07:31:43.665Z,14.42
2023-03-22T07:32:49.499Z,14.47
2023-03-22T07:33:53.988Z,14.51
2023-03-22T07:34:59.868Z,14.55
2023-03-22T07:36:03.461Z,14.59
2023-03-22T07:37:09.034Z,14.66
2023-03-22T07:38:14.004Z,14.72
2023-03-22T07:39:17.989Z,14.75
2023-03-22T07:40:25.138Z,14.82
2023-03-22T07:41:31.218Z,14.88
2023-03-22T07:43:14.040Z,14.93
2023-03-22T07:44:32.794Z,15.01
2023-03-22T07:45:59.665Z,15.14
2023-03-22T07:47:37.708Z,15.25
2023-03-22T07:49:04.250Z,15.35
2023-03-22T07:50:30.900Z,15.53
2023-03-22T07:51:37.131Z,15.65
2023-03-22T07:52:44.757Z,15.79
2023-03-22T07:53:48.325Z,15.93
2023-03-22T07:54:51.862Z,16.09
2023-03-22T07:55:55.865Z,16.22
2023-03-22T07:56:59.806Z,16.35
2023-03-22T07:58:04.242Z,16.45
2023-03-22T07:59:07.920Z,16.64
2023-03-22T08:00:13.256Z,16.94
2023-03-22T08:01:21.004Z,17.16
2023-03-22T08:02:34.369Z,17.39
2023-03-22T08:03:40.010Z,17.58
2023-03-22T08:05:07.720Z,17.86
2023-03-22T08:06:14.789Z,18.10
2023-03-22T08:07:19.116Z,18.31
2023-03-22T08:08:24.125Z,18.53
2023-03-22T08:09:28.238Z,18.75
2023-03-22T08:10:33.844Z,19.04
2023-03-22T08:11:37.643Z,19.37
2023-03-22T08:12:41.510Z,19.90
2023-03-22T08:13:52.491Z,20.54
2023-03-22T08:14:56.199Z,21.87
2023-03-22T08:16:02.967Z,22.75
2023-03-22T08:17:08.631Z,23.33
2023-03-22T08:18:12.298Z,23.90
2023-03-22T08:19:16.741Z,24.24
2023-03-22T08:20:20.840Z,24.76
2023-03-22T08:21:30.859Z,25.49
2023-03-22T08:22:36.129Z,26.16
2023-03-22T08:23:58.630Z,26.33
2023-03-22T08:25:34.545Z,26.81
2023-03-22T08:26:46.364Z,27.85
2023-03-22T08:27:56.875Z,28.74
2023-03-22T08:29:03.504Z,28.85
2023-03-22T08:30:11.533Z,28.63
2023-03-22T08:31:16.458Z,28.38
2023-03-22T08:32:22.667Z,28.64
2023-03-22T08:33:26.749Z,28.99
2023-03-22T08:34:31.837Z,29.44
2023-03-22T08:35:35.743Z,30.11
2023-03-22T08:36:39.819Z,30.71
2023-03-22T08:37:43.967Z,31.35
2023-03-22T08:38:48.230Z,31.67
2023-03-22T08:39:54.990Z,32.17
2023-03-22T08:41:21.614Z,32.00
2023-03-22T08:42:25.572Z,31.43
2023-03-22T08:43:29.600Z,30.92
2023-03-22T08:44:33.388Z,30.35
2023-03-22T08:45:39.202Z,29.76
2023-03-22T08:46:48.946Z,29.18
2023-03-22T08:47:52.673Z,28.78
2023-03-22T08:49:01.556Z,28.39
2023-03-22T08:50:12.179Z,27.98
2023-03-22T08:51:24.374Z,27.60
2023-03-22T08:52:43.120Z,26.96
2023-03-22T08:54:05.345Z,26.62
2023-03-22T08:55:40.948Z,26.54
2023-03-22T08:56:48.822Z,26.17
2023-03-22T08:58:05.151Z,26.90
2023-03-22T08:59:31.797Z,28.32
2023-03-22T09:00:53.457Z,29.67
2023-03-22T09:02:23.396Z,30.98
2023-03-22T09:03:27.333Z,31.66
2023-03-22T09:04:31.524Z,32.20
2023-03-22T09:05:35.524Z,32.81
2023-03-22T09:06:43.410Z,33.37
2023-03-22T09:07:47.945Z,33.62
2023-03-22T09:09:05.718Z,33.10
2023-03-22T09:10:10.039Z,32.89
2023-03-22T09:11:18.049Z,32.03
2023-03-22T09:12:23.901Z,31.58
2023-03-22T09:13:31.130Z,31.17
2023-03-22T09:14:37.531Z,30.69
2023-03-22T09:15:41.830Z,30.13
2023-03-22T09:16:52.969Z,29.35
2023-03-22T09:17:57.129Z,28.89
2023-03-22T09:19:01.273Z,28.41
2023-03-22T09:20:12.423Z,27.86
2023-03-22T09:21:19.621Z,27.44
2023-03-22T09:22:34.569Z,26.85
2023-03-22T09:23:38.852Z,26.53
2023-03-22T09:24:43.904Z,26.43
2023-03-22T09:25:48.745Z,27.06
2023-03-22T09:26:59.195Z,27.95
2023-03-22T09:28:03.125Z,29.13
2023-03-22T09:29:07.111Z,30.26
2023-03-22T09:30:12.250Z,31.49
2023-03-22T09:31:17.014Z,32.41
2023-03-22T09:32:22.907Z,32.54
2023-03-22T09:33:34.384Z,32.23
2023-03-22T09:34:38.543Z,31.92
2023-03-22T09:35:43.950Z,31.64
2023-03-22T09:36:49.689Z,31.51
2023-03-22T09:38:17.017Z,31.98
2023-03-22T09:39:23.180Z,32.37
2023-03-22T09:40:31.218Z,32.87
2023-03-22T09:41:46.750Z,33.03
2023-03-22T09:42:52.338Z,33.69
2023-03-22T09:44:04.135Z,34.04
2023-03-22T09:45:10.234Z,34.02
2023-03-22T09:46:19.676Z,33.65
2023-03-22T09:47:45.610Z,33.07
2023-03-22T09:48:49.509Z,32.10
2023-03-22T09:50:00.109Z,31.68
2023-03-22T09:51:04.430Z,31.06
2023-03-22T09:52:12.979Z,30.77
2023-03-22T09:53:17.488Z,30.58
2023-03-22T09:54:28.628Z,30.80
2023-03-22T09:55:38.805Z,31.28
2023-03-22T09:56:42.450Z,31.42
2023-03-22T09:57:47.357Z,31.60
2023-03-22T09:59:16.822Z,31.36
2023-03-22T10:00:41.303Z,31.55
2023-03-22T10:02:06.073Z,32.23
2023-03-22T10:03:25.558Z,32.89
2023-03-22T10:04:49.575Z,33.44
2023-03-22T10:06:29.645Z,33.83
2023-03-22T10:07:42.388Z,34.02
2023-03-22T10:09:12.814Z,34.52
2023-03-22T10:10:25.764Z,34.91
2023-03-22T10:11:47.209Z,35.29
2023-03-22T10:13:15.698Z,35.74
2023-03-22T10:14:43.561Z,35.97
2023-03-22T10:16:07.326Z,35.56
2023-03-22T10:17:14.433Z,35.83
2023-03-22T10:18:43.937Z,35.91
2023-03-22T10:19:56.541Z,35.89
2023-03-22T10:21:06.504Z,36.12
2023-03-22T10:22:10.213Z,36.12
2023-03-22T10:23:17.603Z,36.52
2023-03-22T10:24:28.076Z,36.71
2023-03-22T10:25:42.074Z,36.83
2023-03-22T10:26:48.926Z,36.68
2023-03-22T10:27:52.654Z,36.59
2023-03-22T10:29:11.368Z,36.65
2023-03-22T10:30:27.746Z,36.70
2023-03-22T10:31:32.547Z,36.87
2023-03-22T10:32:57.627Z,36.82
2023-03-22T10:34:13.933Z,36.85
2023-03-22T10:35:18.090Z,36.85
2023-03-22T10:36:23.690Z,36.75
2023-03-22T10:37:33.080Z,36.44
2023-03-22T10:38:40.341Z,36.40
2023-03-22T10:39:50.443Z,36.60
2023-03-22T10:40:55.028Z,36.74
2023-03-22T10:42:00.902Z,36.24
2023-03-22T10:43:07.886Z,35.97
2023-03-22T10:44:13.928Z,36.06
2023-03-22T10:45:17.878Z,36.17
2023-03-22T10:46:23.081Z,36.30
2023-03-22T10:47:42.313Z,36.03
2023-03-22T10:48:47.348Z,35.46
2023-03-22T10:49:55.625Z,35.63
2023-03-22T10:50:59.805Z,35.34
2023-03-22T10:52:24.540Z,35.79
2023-03-22T10:53:42.139Z,36.05
2023-03-22T10:54:48.696Z,36.25
2023-03-22T10:55:52.277Z,36.40
2023-03-22T10:56:56.481Z,36.18
2023-03-22T10:58:23.457Z,35.81
2023-03-22T10:59:52.706Z,35.80
2023-03-22T11:01:01.037Z,35.01
2023-03-22T11:02:05.413Z,35.00
2023-03-22T11:03:09.957Z,35.06
2023-03-22T11:04:14.827Z,35.16
2023-03-22T11:05:24.569Z,35.11
2023-03-22T11:06:30.538Z,35.11
2023-03-22T11:07:45.125Z,35.16
2023-03-22T11:08:56.368Z,35.37
2023-03-22T11:10:11.285Z,35.38
2023-03-22T11:11:30.749Z,35.12
2023-03-22T11:12:34.752Z,35.25
2023-03-22T11:13:38.322Z,35.38
2023-03-22T11:14:44.357Z,35.29
2023-03-22T11:15:53.177Z,35.16
2023-03-22T11:17:01.158Z,35.03
2023-03-22T11:18:09.806Z,34.49
2023-03-22T11:19:16.555Z,33.88
2023-03-22T11:20:20.750Z,33.79
2023-03-22T11:21:27.468Z,33.51
2023-03-22T11:22:37.432Z,32.51
2023-03-22T11:23:43.104Z,31.92
2023-03-22T11:24:47.228Z,31.78
2023-03-22T11:25:51.551Z,32.39
2023-03-22T11:27:08.375Z,32.96
2023-03-22T11:28:22.101Z,33.32
2023-03-22T11:29:25.866Z,33.45
2023-03-22T11:30:30.341Z,33.56
2023-03-22T11:32:20.561Z,33.83
2023-03-22T11:33:26.495Z,33.90
2023-03-22T11:34:31.377Z,33.47
2023-03-22T11:35:36.528Z,33.70
2023-03-22T11:36:44.364Z,33.58
2023-03-22T11:37:52.826Z,33.56
2023-03-22T11:39:04.330Z,33.76
2023-03-22T11:40:11.389Z,33.55
2023-03-22T11:41:23.900Z,33.43
2023-03-22T11:42:27.458Z,33.33
2023-03-22T11:43:37.972Z,33.47
2023-03-22T11:44:41.609Z,33.61
2023-03-22T11:45:45.643Z,33.61
2023-03-22T11:47:00.886Z,33.02
2023-03-22T11:48:09.665Z,31.72
2023-03-22T11:49:15.163Z,31.62
2023-03-22T11:50:45.063Z,31.35
2023-03-22T11:51:48.647Z,31.52
2023-03-22T11:52:52.729Z,31.74
2023-03-22T11:54:06.424Z,32.03
2023-03-22T11:55:15.518Z,32.15
2023-03-22T11:56:31.832Z,32.56
2023-03-22T11:57:35.406Z,32.76
2023-03-22T11:58:39.382Z,32.72
2023-03-22T12:00:15.616Z,32.73
2023-03-22T12:01:33.126Z,32.68
2023-03-22T12:02:45.140Z,32.38
2023-03-22T12:03:51.979Z,32.03
2023-03-22T12:05:34.511Z,32.53
2023-03-22T12:06:40.634Z,32.86
2023-03-22T12:07:44.199Z,32.93
2023-03-22T12:09:17.895Z,33.17
2023-03-22T12:10:27.588Z,33.46
2023-03-22T12:11:41.578Z,33.54
2023-03-22T12:12:54.339Z,33.70
2023-03-22T12:14:23.336Z,33.24
2023-03-22T12:15:34.646Z,33.03
2023-03-22T12:16:52.695Z,33.45
2023-03-22T12:18:08.799Z,33.35
2023-03-22T12:19:40.853Z,33.62
2023-03-22T12:20:58.581Z,33.55
2023-03-22T12:22:02.576Z,33.70
2023-03-22T12:23:17.907Z,33.81
2023-03-22T12:24:31.499Z,34.18
2023-03-22T12:25:36.407Z,34.28
2023-03-22T12:26:40.291Z,34.44
2023-03-22T12:27:46.729Z,34.36
2023-03-22T12:29:23.357Z,34.19
2023-03-22T12:30:32.890Z,34.47
2023-03-22T12:31:41.000Z,34.62
2023-03-22T12:32:53.714Z,34.59
2023-03-22T12:34:02.377Z,34.21
2023-03-22T12:35:17.236Z,34.60
2023-03-22T12:36:38.685Z,34.28
2023-03-22T12:37:43.340Z,34.62
2023-03-22T12:38:52.682Z,35.08
2023-03-22T12:40:01.759Z,35.33
2023-03-22T12:41:08.249Z,35.50
2023-03-22T12:42:19.045Z,35.43
2023-03-22T12:43:40.226Z,34.86
2023-03-22T12:44:46.427Z,34.70
2023-03-22T12:45:59.961Z,34.44
2023-03-22T12:47:08.982Z,34.27
2023-03-22T12:48:55.313Z,33.97
2023-03-22T12:50:07.595Z,33.80
2023-03-22T12:51:13.389Z,33.69
2023-03-22T12:52:26.396Z,33.40
2023-03-22T12:53:42.892Z,33.31
2023-03-22T12:54:48.135Z,33.54
2023-03-22T12:55:52.059Z,33.34
2023-03-22T12:56:56.249Z,32.55
2023-03-22T12:57:59.856Z,32.19
2023-03-22T12:59:05.549Z,32.38
2023-03-22T13:00:16.104Z,32.79
2023-03-22T13:01:45.547Z,32.56
2023-03-22T13:02:53.777Z,32.53
2023-03-22T13:03:58.336Z,32.30
2023-03-22T13:05:05.420Z,32.18
2023-03-22T13:06:46.632Z,31.91
2023-03-22T13:07:50.527Z,31.66
2023-03-22T13:09:18.539Z,31.53
2023-03-22T13:10:31.429Z,31.42
2023-03-22T13:11:35.171Z,31.26
2023-03-22T13:12:38.741Z,31.07
2023-03-22T13:13:46.825Z,31.20
2023-03-22T13:14:50.506Z,31.00
2023-03-22T13:16:03.354Z,30.41
2023-03-22T13:17:08.713Z,30.35
2023-03-22T13:18:33.126Z,30.29
2023-03-22T13:19:38.092Z,30.35
2023-03-22T13:20:42.242Z,30.42
2023-03-22T13:21:46.551Z,30.12
2023-03-22T13:22:50.462Z,29.54
2023-03-22T13:24:11.003Z,29.12
2023-03-22T13:25:19.625Z,28.87
2023-03-22T13:26:26.406Z,28.55
2023-03-22T13:27:52.904Z,28.42
2023-03-22T13:29:01.080Z,28.48
2023-03-22T13:30:10.205Z,28.31
2023-03-22T13:31:29.894Z,28.00
2023-03-22T13:32:34.586Z,27.96
2023-03-22T13:33:38.214Z,27.63
2023-03-22T13:34:50.001Z,27.72
2023-03-22T13:35:59.795Z,27.57
2023-03-22T13:37:04.619Z,27.22
2023-03-22T13:38:10.286Z,26.69
2023-03-22T13:39:15.884Z,26.77
2023-03-22T13:40:32.642Z,26.98
2023-03-22T13:41:36.521Z,27.11
2023-03-22T13:42:40.768Z,27.10
2023-03-22T13:43:44.657Z,27.24
2023-03-22T13:44:59.646Z,27.23
2023-03-22T13:46:18.682Z,27.12
2023-03-22T13:47:44.311Z,26.87
2023-03-22T13:48:48.677Z,26.73
2023-03-22T13:49:58.556Z,26.61
2023-03-22T13:51:10.738Z,26.84
2023-03-22T13:52:27.546Z,27.08
2023-03-22T13:53:31.752Z,26.96
2023-03-22T13:54:42.304Z,27.28
2023-03-22T13:55:54.822Z,27.22
2023-03-22T13:56:59.070Z,27.22
2023-03-22T13:58:03.838Z,26.92
2023-03-22T13:59:13.941Z,26.88
2023-03-22T14:00:32.238Z,26.67
2023-03-22T14:01:38.255Z,26.18
2023-03-22T14:02:43.035Z,26.25
2023-03-22T14:03:48.389Z,26.36
2023-03-22T14:05:13.030Z,26.34
2023-03-22T14:06:24.195Z,26.02
2023-03-22T14:07:51.379Z,25.85
2023-03-22T14:09:02.754Z,25.80
2023-03-22T14:10:28.701Z,25.93
2023-03-22T14:11:48.655Z,25.96
2023-03-22T14:12:52.085Z,26.02
2023-03-22T14:14:00.100Z,25.83
2023-03-22T14:15:05.352Z,25.70
2023-03-22T14:16:31.010Z,25.56
2023-03-22T14:17:49.356Z,25.42
2023-03-22T14:18:54.490Z,25.51
2023-03-22T14:19:59.529Z,25.63
2023-03-22T14:21:08.136Z,25.56
2023-03-22T14:52:06.881Z,24.46
2023-03-22T14:53:11.522Z,24.09
2023-03-22T14:54:19.255Z,24.13
2023-03-22T14:55:26.112Z,24.15
2023-03-22T14:56:39.771Z,24.20
2023-03-22T14:57:51.995Z,23.97
2023-03-22T14:58:57.126Z,23.49
2023-03-22T15:00:03.088Z,23.50
2023-03-22T15:01:13.669Z,23.80
2023-03-22T15:02:32.159Z,23.83
2023-03-22T15:03:36.321Z,23.82
2023-03-22T15:04:42.169Z,23.91
2023-03-22T15:05:46.164Z,23.87
2023-03-22T15:07:01.121Z,23.97
2023-03-22T15:08:09.317Z,23.68
2023-03-22T15:09:13.243Z,23.28
2023-03-22T15:10:29.396Z,23.56
2023-03-22T15:11:33.454Z,23.54
2023-03-22T15:12:37.595Z,23.60
2023-03-22T15:13:41.584Z,23.66
2023-03-22T15:14:46.151Z,23.61
2023-03-22T15:15:50.173Z,23.40
2023-03-22T15:16:53.902Z,23.38
2023-03-22T15:17:58.447Z,23.42
2023-03-22T15:19:02.897Z,23.42
2023-03-22T15:20:07.716Z,23.41
2023-03-22T15:21:11.734Z,23.44
2023-03-22T15:22:17.185Z,22.96
2023-03-22T15:23:39.390Z,23.23
2023-03-22T15:24:55.135Z,23.34
2023-03-22T15:26:02.111Z,23.24
2023-03-22T15:27:08.490Z,23.22
2023-03-22T15:28:16.339Z,23.11
2023-03-22T15:29:23.630Z,23.19
2023-03-22T15:30:27.761Z,23.12
2023-03-22T15:31:33.936Z,23.10
2023-03-22T15:32:41.264Z,22.97